Time;durP1;ratioP1;P1;durP2;ratioP2;P2;SDS_P1;SDS_P2;PMS_P1;PMS_P2;Temp;Humidity;BMP_temperature;BMP_pressure;BME280_temperature;BME280_humidity;BME280_pressure;Samples;Min_cycle;Max_cycle;Signal;HPM_P1;HPM_P2
2022/12/04 00:01:27;;;;;;;40.83;24.70;;;;;;;;;;5021041;28;20075;-68
2022/12/04 00:03:53;;;;;;;33.38;23.15;;;;;;;;;;5024959;28;20029;-68
2022/12/04 00:06:19;;;;;;;37.42;24.08;;;;;;;;;;5050086;28;20025;-68
2022/12/04 00:08:45;;;;;;;38.70;23.98;;;;;;;;;;5035845;28;20927;-68
2022/12/04 00:11:11;;;;;;;36.78;24.45;;;;;;;;;;5050696;28;20028;-68
2022/12/04 00:13:37;;;;;;;40.35;25.58;;;;;;;;;;5035453;28;20051;-68
2022/12/04 00:16:03;;;;;;;33.40;23.33;;;;;;;;;;5025873;28;20013;-68
2022/12/04 00:18:28;;;;;;;34.92;23.67;;;;;;;;;;5028673;28;20517;-68
2022/12/04 00:20:54;;;;;;;42.25;24.48;;;;;;;;;;5016419;28;20037;-68
2022/12/04 00:23:19;;;;;;;32.65;23.55;;;;;;;;;;5017065;28;20840;-68
2022/12/04 00:25:47;;;;;;;40.83;25.33;;;;;;;;;;5028470;28;20029;-68
2022/12/04 00:28:14;;;;;;;35.25;23.05;;;;;;;;;;5025554;28;20024;-68
2022/12/04 00:30:40;;;;;;;38.78;26.13;;;;;;;;;;5023772;28;20075;-69
2022/12/04 00:33:05;;;;;;;38.47;24.20;;;;;;;;;;5020289;28;20041;-68
2022/12/04 00:35:30;;;;;;;35.97;24.60;;;;;;;;;;5016453;28;20049;-68
2022/12/04 00:37:55;;;;;;;31.00;23.15;;;;;;;;;;5024017;28;20053;-68
2022/12/04 00:40:20;;;;;;;34.50;23.83;;;;;;;;;;5021238;28;20068;-68
2022/12/04 00:42:46;;;;;;;32.80;23.92;;;;;;;;;;5032078;28;20854;-68
2022/12/04 00:45:11;;;;;;;36.30;23.42;;;;;;;;;;5022074;28;20456;-68
2022/12/04 00:47:36;;;;;;;44.97;25.30;;;;;;;;;;5021359;28;20037;-69
2022/12/04 00:50:02;;;;;;;35.30;22.85;;;;;;;;;;5027462;28;20029;-68
2022/12/04 00:52:27;;;;;;;40.00;23.38;;;;;;;;;;5013869;28;20067;-68
2022/12/04 00:54:52;;;;;;;35.30;24.63;;;;;;;;;;5017646;28;20083;-68
2022/12/04 00:57:17;;;;;;;37.65;24.50;;;;;;;;;;5028558;28;20028;-69
2022/12/04 00:59:43;;;;;;;40.22;25.80;;;;;;;;;;5030918;28;20436;-69
2022/12/04 01:02:08;;;;;;;31.60;23.15;;;;;;;;;;5044219;28;20230;-68
2022/12/04 01:04:33;;;;;;;38.63;24.95;;;;;;;;;;5027070;28;20026;-68
2022/12/04 01:06:58;;;;;;;34.85;23.30;;;;;;;;;;5026174;28;20079;-68
2022/12/04 01:09:24;;;;;;;36.72;24.67;;;;;;;;;;5020636;28;20791;-68
2022/12/04 01:11:49;;;;;;;38.28;25.55;;;;;;;;;;5038236;28;20384;-68
2022/12/04 01:14:14;;;;;;;42.78;25.73;;;;;;;;;;5035444;28;20542;-68
2022/12/04 01:16:39;;;;;;;39.90;24.50;;;;;;;;;;5030929;28;20013;-68
2022/12/04 01:19:06;;;;;;;37.05;24.58;;;;;;;;;;5038154;28;20100;-68
2022/12/04 01:21:31;;;;;;;37.45;25.50;;;;;;;;;;5037118;28;20066;-69
2022/12/04 01:23:57;;;;;;;35.45;24.00;;;;;;;;;;5035610;28;20127;-68
2022/12/04 01:26:23;;;;;;;36.78;24.08;;;;;;;;;;5031488;28;20849;-69
2022/12/04 01:28:48;;;;;;;37.63;24.55;;;;;;;;;;5030033;28;20021;-69
2022/12/04 01:31:15;;;;;;;37.35;25.98;;;;;;;;;;5015443;28;20020;-68
2022/12/04 01:33:41;;;;;;;39.40;26.02;;;;;;;;;;5033612;28;20025;-69
2022/12/04 01:36:08;;;;;;;35.35;26.13;;;;;;;;;;5035656;28;20029;-69
2022/12/04 01:38:34;;;;;;;42.50;25.75;;;;;;;;;;5034954;28;20558;-69
2022/12/04 01:41:00;;;;;;;37.05;25.70;;;;;;;;;;5035355;28;20048;-69
2022/12/04 01:43:28;;;;;;;36.63;25.40;;;;;;;;;;5036822;28;20107;-69
2022/12/04 01:45:55;;;;;;;40.38;25.55;;;;;;;;;;5035432;28;20027;-69
2022/12/04 01:48:23;;;;;;;36.92;25.98;;;;;;;;;;5033713;28;20815;-68
2022/12/04 01:50:50;;;;;;;40.92;26.20;;;;;;;;;;5028832;28;20131;-68
2022/12/04 01:53:16;;;;;;;45.30;25.17;;;;;;;;;;5028826;28;20031;-68
2022/12/04 01:55:42;;;;;;;38.17;24.40;;;;;;;;;;5033704;28;20025;-68
2022/12/04 01:58:08;;;;;;;44.67;27.75;;;;;;;;;;5029432;28;20556;-69
2022/12/04 02:00:33;;;;;;;38.13;25.63;;;;;;;;;;5038639;28;20020;-68
2022/12/04 02:02:59;;;;;;;42.33;27.02;;;;;;;;;;5036788;28;20025;-68
2022/12/04 02:05:24;;;;;;;35.42;27.13;;;;;;;;;;5037298;28;20039;-68
2022/12/04 02:07:51;;;;;;;41.25;26.83;;;;;;;;;;5043817;28;20037;-68
2022/12/04 02:10:23;;;;;;;46.67;29.00;;;;;;;;;;5035170;28;20044;-68
2022/12/04 02:13:07;;;;;;;40.63;26.00;;;;;;;;;;5032577;28;20017;-68
2022/12/04 02:15:38;;;;;;;39.45;27.40;;;;;;;;;;5024864;28;20147;-68
2022/12/04 02:18:16;;;;;;;44.08;28.08;;;;;;;;;;5034086;28;20645;-68
2022/12/04 02:21:03;;;;;;;42.22;29.77;;;;;;;;;;5023747;28;20029;-68
2022/12/04 02:23:45;;;;;;;49.17;28.15;;;;;;;;;;5022648;28;20024;-68
2022/12/04 02:26:13;;;;;;;40.38;27.30;;;;;;;;;;5033365;28;20029;-69
2022/12/04 02:28:43;;;;;;;43.55;28.90;;;;;;;;;;5033610;28;20434;-69
2022/12/04 02:31:12;;;;;;;39.20;26.77;;;;;;;;;;5034029;28;20028;-68
2022/12/04 02:33:43;;;;;;;46.42;30.23;;;;;;;;;;5038915;28;20032;-68
2022/12/04 02:36:11;;;;;;;46.60;28.70;;;;;;;;;;5038941;28;20066;-68
2022/12/04 02:38:52;;;;;;;42.92;29.23;;;;;;;;;;5039544;28;20029;-69
2022/12/04 02:41:17;;;;;;;43.88;27.92;;;;;;;;;;5023320;28;20466;-69
2022/12/04 02:43:44;;;;;;;39.28;27.48;;;;;;;;;;5029553;28;20087;-69
2022/12/04 02:46:19;;;;;;;44.58;27.02;;;;;;;;;;5032033;28;20395;-68
2022/12/04 02:48:46;;;;;;;43.80;28.42;;;;;;;;;;5022202;28;20363;-69
2022/12/04 02:51:13;;;;;;;43.47;29.08;;;;;;;;;;5018624;28;20048;-68
2022/12/04 02:53:53;;;;;;;42.80;27.92;;;;;;;;;;5027453;28;20419;-68
2022/12/04 02:56:22;;;;;;;43.67;29.35;;;;;;;;;;5018496;28;20029;-68
2022/12/04 02:58:49;;;;;;;48.72;30.83;;;;;;;;;;5026491;28;20504;-68
2022/12/04 03:01:20;;;;;;;46.42;30.20;;;;;;;;;;5035028;28;20024;-68
2022/12/04 03:03:50;;;;;;;45.10;27.67;;;;;;;;;;5029169;28;20056;-68
2022/12/04 03:06:16;;;;;;;52.10;28.58;;;;;;;;;;5024024;28;20491;-68
2022/12/04 03:08:54;;;;;;;49.90;29.55;;;;;;;;;;5025472;28;20029;-68
2022/12/04 03:11:20;;;;;;;46.45;28.95;;;;;;;;;;5036125;28;20032;-68
2022/12/04 03:13:58;;;;;;;44.65;30.08;;;;;;;;;;5016086;28;20044;-68
2022/12/04 03:16:38;;;;;;;45.92;29.67;;;;;;;;;;4996594;28;20075;-68
2022/12/04 03:19:06;;;;;;;46.72;28.38;;;;;;;;;;5013821;28;20592;-68
2022/12/04 03:21:34;;;;;;;47.33;30.38;;;;;;;;;;5034752;28;20024;-68
2022/12/04 03:24:11;;;;;;;49.13;31.80;;;;;;;;;;5022031;28;20780;-68
2022/12/04 03:26:37;;;;;;;48.65;29.88;;;;;;;;;;5035694;28;20024;-68
2022/12/04 03:29:02;;;;;;;48.72;30.52;;;;;;;;;;5037680;28;20023;-68
2022/12/04 03:31:36;;;;;;;45.88;30.27;;;;;;;;;;5045234;28;20025;-68
2022/12/04 03:34:04;;;;;;;45.03;29.30;;;;;;;;;;5048671;28;20108;-68
2022/12/04 03:36:35;;;;;;;44.03;28.58;;;;;;;;;;5035477;28;20048;-68
2022/12/04 03:39:27;;;;;;;47.38;31.83;;;;;;;;;;5035934;28;20029;-69
2022/12/04 03:42:00;;;;;;;46.35;29.98;;;;;;;;;;5030186;28;20052;-68
2022/12/04 03:44:33;;;;;;;47.83;28.50;;;;;;;;;;5026103;28;20139;-68
2022/12/04 03:47:05;;;;;;;46.17;31.27;;;;;;;;;;5049737;28;20040;-68
2022/12/04 03:49:49;;;;;;;52.67;31.85;;;;;;;;;;5034615;28;20831;-68
2022/12/04 03:52:21;;;;;;;44.92;28.73;;;;;;;;;;5017339;28;20561;-69
2022/12/04 03:54:49;;;;;;;45.97;29.80;;;;;;;;;;5019168;28;20020;-69
2022/12/04 03:57:19;;;;;;;53.60;30.98;;;;;;;;;;5019172;28;20017;-69
2022/12/04 03:59:47;;;;;;;47.67;30.48;;;;;;;;;;5014845;28;20025;-68
2022/12/04 04:02:14;;;;;;;46.50;30.27;;;;;;;;;;5030147;28;20027;-68
2022/12/04 04:04:41;;;;;;;48.58;30.67;;;;;;;;;;5030783;28;20017;-68
2022/12/04 04:07:10;;;;;;;50.55;30.48;;;;;;;;;;5032924;28;20044;-69
2022/12/04 04:09:37;;;;;;;48.40;31.17;;;;;;;;;;5043564;28;20037;-69
2022/12/04 04:12:05;;;;;;;46.42;30.98;;;;;;;;;;5029027;28;20487;-69
2022/12/04 04:25:41;;;;;;;50.95;31.13;;;;;;;;;;5033645;28;20143;-68
2022/12/04 04:28:26;;;;;;;48.13;30.90;;;;;;;;;;5029884;28;20031;-69
2022/12/04 04:30:51;;;;;;;45.78;29.65;;;;;;;;;;5024468;28;20029;-68
2022/12/04 04:33:16;;;;;;;50.42;31.33;;;;;;;;;;5027691;28;20471;-68
2022/12/04 04:36:03;;;;;;;49.53;29.52;;;;;;;;;;5032513;28;20114;-68
2022/12/04 04:38:34;;;;;;;51.03;30.48;;;;;;;;;;5018037;28;20132;-69
2022/12/04 04:41:21;;;;;;;49.38;30.13;;;;;;;;;;5023845;28;20035;-69
2022/12/04 04:43:58;;;;;;;46.90;30.90;;;;;;;;;;5046412;28;20098;-68
2022/12/04 04:46:34;;;;;;;52.70;31.60;;;;;;;;;;5033751;28;20040;-68
2022/12/04 04:49:01;;;;;;;51.80;28.88;;;;;;;;;;5031608;28;20589;-69
2022/12/04 04:51:27;;;;;;;49.28;29.42;;;;;;;;;;5028047;28;20095;-69
2022/12/04 04:53:54;;;;;;;46.85;30.63;;;;;;;;;;5028093;28;20024;-69
2022/12/04 04:56:20;;;;;;;47.35;30.35;;;;;;;;;;5028621;28;20017;-69
2022/12/04 04:58:45;;;;;;;50.00;29.05;;;;;;;;;;5034416;28;20098;-69
2022/12/04 05:01:12;;;;;;;44.88;29.02;;;;;;;;;;5037523;28;20387;-69
2022/12/04 05:03:37;;;;;;;50.33;31.13;;;;;;;;;;5033987;28;20036;-69
2022/12/04 05:06:02;;;;;;;45.65;30.45;;;;;;;;;;5035819;28;20684;-69
2022/12/04 05:08:28;;;;;;;45.15;30.02;;;;;;;;;;5029814;28;20039;-69
2022/12/04 05:10:53;;;;;;;42.13;28.30;;;;;;;;;;5027581;28;20707;-69
2022/12/04 05:13:18;;;;;;;44.20;28.67;;;;;;;;;;5024839;28;20017;-69
2022/12/04 05:15:44;;;;;;;47.30;29.98;;;;;;;;;;5033246;28;20029;-69
2022/12/04 05:18:09;;;;;;;44.90;30.30;;;;;;;;;;5021930;28;20057;-69
2022/12/04 05:20:38;;;;;;;51.47;29.80;;;;;;;;;;5030565;28;20021;-69
2022/12/04 05:23:03;;;;;;;45.40;29.35;;;;;;;;;;5028598;28;20020;-68
2022/12/04 05:25:29;;;;;;;39.40;27.48;;;;;;;;;;5024120;28;20013;-69
2022/12/04 05:27:54;;;;;;;49.75;30.77;;;;;;;;;;5024346;28;20079;-69
2022/12/04 05:30:19;;;;;;;47.63;30.30;;;;;;;;;;5051328;28;20025;-69
2022/12/04 05:32:45;;;;;;;46.10;29.58;;;;;;;;;;5031302;28;20037;-69
2022/12/04 05:35:10;;;;;;;48.95;29.88;;;;;;;;;;5033197;28;20044;-69
2022/12/04 05:37:36;;;;;;;52.22;31.85;;;;;;;;;;5040075;28;20028;-69
2022/12/04 05:40:02;;;;;;;46.97;30.25;;;;;;;;;;5035853;28;20048;-69
2022/12/04 05:42:27;;;;;;;43.17;28.95;;;;;;;;;;5036263;28;20150;-69
2022/12/04 05:44:53;;;;;;;52.53;31.83;;;;;;;;;;5039581;28;20020;-68
2022/12/04 05:47:18;;;;;;;50.97;29.80;;;;;;;;;;5038542;28;20399;-69
2022/12/04 05:49:43;;;;;;;43.80;29.85;;;;;;;;;;5038441;28;20025;-69
2022/12/04 05:52:09;;;;;;;50.53;30.27;;;;;;;;;;5049442;28;20076;-69
2022/12/04 05:54:35;;;;;;;56.47;31.48;;;;;;;;;;5053301;28;20063;-69
2022/12/04 05:57:00;;;;;;;47.70;30.70;;;;;;;;;;5016075;28;20487;-69
2022/12/04 05:59:26;;;;;;;41.75;28.50;;;;;;;;;;5034643;28;20902;-69
2022/12/04 06:01:51;;;;;;;41.80;28.95;;;;;;;;;;5049090;28;20103;-68
2022/12/04 06:04:16;;;;;;;45.80;29.00;;;;;;;;;;5043163;28;20048;-69
2022/12/04 06:06:41;;;;;;;48.10;29.90;;;;;;;;;;5036988;28;20025;-69
2022/12/04 06:09:07;;;;;;;48.65;30.65;;;;;;;;;;5021527;28;20029;-69
2022/12/04 06:11:34;;;;;;;50.90;30.98;;;;;;;;;;5026617;28;20036;-68
2022/12/04 06:14:00;;;;;;;48.47;31.08;;;;;;;;;;5027349;28;20060;-69
2022/12/04 06:16:30;;;;;;;47.45;30.17;;;;;;;;;;5040632;28;20818;-69
2022/12/04 06:18:59;;;;;;;43.95;29.13;;;;;;;;;;5029676;28;20106;-69
2022/12/04 06:21:26;;;;;;;45.25;29.67;;;;;;;;;;5021970;28;20027;-69
2022/12/04 06:23:52;;;;;;;45.10;27.60;;;;;;;;;;5022523;28;20037;-69
2022/12/04 06:26:17;;;;;;;43.53;29.52;;;;;;;;;;5034253;28;20078;-69
2022/12/04 06:28:42;;;;;;;49.85;29.98;;;;;;;;;;5027116;28;20035;-69
2022/12/04 06:31:09;;;;;;;45.47;27.83;;;;;;;;;;5027487;28;20056;-69
2022/12/04 06:33:35;;;;;;;50.03;30.08;;;;;;;;;;5028365;28;20132;-69
2022/12/04 06:36:04;;;;;;;42.95;29.60;;;;;;;;;;5023389;28;20025;-69
2022/12/04 06:38:30;;;;;;;50.03;30.33;;;;;;;;;;5018363;28;20037;-69
2022/12/04 06:40:55;;;;;;;41.42;28.90;;;;;;;;;;5036803;28;20023;-69
2022/12/04 06:43:21;;;;;;;47.08;30.73;;;;;;;;;;5028852;28;20056;-69
2022/12/04 06:45:47;;;;;;;45.50;29.00;;;;;;;;;;5026326;28;20131;-68
2022/12/04 06:48:12;;;;;;;56.47;30.00;;;;;;;;;;5024130;28;20112;-68
2022/12/04 06:50:37;;;;;;;42.90;28.45;;;;;;;;;;5026643;28;20031;-69
2022/12/04 06:53:02;;;;;;;44.03;29.20;;;;;;;;;;5024487;28;20064;-69
2022/12/04 06:55:28;;;;;;;49.05;28.67;;;;;;;;;;5045227;28;20025;-68
2022/12/04 06:57:53;;;;;;;45.22;30.02;;;;;;;;;;5020978;28;20029;-68
2022/12/04 07:00:18;;;;;;;49.13;29.10;;;;;;;;;;5016458;28;20558;-68
2022/12/04 07:02:43;;;;;;;44.58;27.35;;;;;;;;;;5024148;28;20909;-68
2022/12/04 07:05:09;;;;;;;38.25;26.85;;;;;;;;;;5025558;28;20026;-68
2022/12/04 07:07:34;;;;;;;53.72;30.25;;;;;;;;;;5022374;28;20479;-69
2022/12/04 07:10:00;;;;;;;40.83;27.05;;;;;;;;;;5036538;28;20021;-69
2022/12/04 07:12:26;;;;;;;49.60;28.40;;;;;;;;;;5025383;28;20471;-68
2022/12/04 07:14:51;;;;;;;46.58;27.20;;;;;;;;;;5029764;28;20087;-68
2022/12/04 07:17:16;;;;;;;44.28;29.08;;;;;;;;;;5032913;28;20095;-68
2022/12/04 07:19:41;;;;;;;45.88;27.15;;;;;;;;;;5035245;28;20833;-68
2022/12/04 07:22:07;;;;;;;40.92;25.50;;;;;;;;;;5027809;28;20032;-68
2022/12/04 07:24:34;;;;;;;40.88;26.20;;;;;;;;;;5035048;28;20143;-68
2022/12/04 07:26:59;;;;;;;44.00;26.90;;;;;;;;;;5024985;28;20025;-69
2022/12/04 07:29:24;;;;;;;46.75;29.77;;;;;;;;;;5039222;28;20075;-68
2022/12/04 07:31:49;;;;;;;43.72;26.45;;;;;;;;;;5022101;28;20067;-68
2022/12/04 07:34:14;;;;;;;44.50;27.85;;;;;;;;;;5024669;28;20025;-69
2022/12/04 07:36:40;;;;;;;42.92;25.88;;;;;;;;;;5032614;28;20032;-69
2022/12/04 07:39:05;;;;;;;44.63;28.48;;;;;;;;;;5032462;28;20107;-68
2022/12/04 07:41:30;;;;;;;41.10;26.70;;;;;;;;;;5030472;28;20024;-68
2022/12/04 07:43:56;;;;;;;44.80;28.15;;;;;;;;;;5037929;28;20076;-68
2022/12/04 07:46:24;;;;;;;41.03;26.10;;;;;;;;;;5035610;28;20029;-67
2022/12/04 07:48:50;;;;;;;43.28;26.23;;;;;;;;;;5034571;28;20025;-69
2022/12/04 07:51:19;;;;;;;43.25;28.27;;;;;;;;;;5035499;28;20512;-68
2022/12/04 07:53:44;;;;;;;42.33;27.08;;;;;;;;;;5045568;28;20031;-70
2022/12/04 07:56:11;;;;;;;39.17;25.02;;;;;;;;;;5046321;28;20029;-69
2022/12/04 07:58:37;;;;;;;37.15;26.40;;;;;;;;;;5034161;28;20025;-69
2022/12/04 08:01:05;;;;;;;38.10;25.58;;;;;;;;;;5042327;28;20043;-69
2022/12/04 08:03:30;;;;;;;43.80;27.02;;;;;;;;;;5032105;28;20037;-70
2022/12/04 08:05:58;;;;;;;41.53;24.83;;;;;;;;;;5026614;28;20021;-69
2022/12/04 08:08:23;;;;;;;38.95;25.30;;;;;;;;;;5047686;28;20014;-69
2022/12/04 08:10:48;;;;;;;42.00;25.48;;;;;;;;;;5034588;28;20025;-69
2022/12/04 08:13:14;;;;;;;38.92;26.30;;;;;;;;;;5036943;28;20036;-69
2022/12/04 08:15:39;;;;;;;40.85;25.85;;;;;;;;;;5033402;28;20104;-69
2022/12/04 08:18:04;;;;;;;39.53;25.58;;;;;;;;;;5050741;28;20044;-69
2022/12/04 08:20:30;;;;;;;42.08;24.83;;;;;;;;;;5052537;28;20067;-69
2022/12/04 08:22:55;;;;;;;36.85;24.80;;;;;;;;;;5052697;28;20067;-69
2022/12/04 08:25:20;;;;;;;40.05;25.10;;;;;;;;;;5051044;28;20017;-69
2022/12/04 08:27:46;;;;;;;37.72;24.63;;;;;;;;;;5051093;28;20033;-69
2022/12/04 08:30:12;;;;;;;35.72;23.88;;;;;;;;;;5051142;28;20013;-69
2022/12/04 08:32:37;;;;;;;42.38;25.40;;;;;;;;;;5049429;28;20494;-69
2022/12/04 08:35:02;;;;;;;31.83;24.05;;;;;;;;;;5050960;28;20017;-69
2022/12/04 08:37:28;;;;;;;35.92;24.85;;;;;;;;;;5050203;28;20170;-69
2022/12/04 08:39:53;;;;;;;48.28;25.70;;;;;;;;;;5048437;28;20087;-70
2022/12/04 08:42:18;;;;;;;46.13;25.48;;;;;;;;;;5045461;28;20468;-69
2022/12/04 08:44:44;;;;;;;39.10;25.63;;;;;;;;;;5051268;28;20423;-69
2022/12/04 08:47:09;;;;;;;37.47;23.08;;;;;;;;;;5051071;28;20375;-69
2022/12/04 08:49:35;;;;;;;46.03;25.65;;;;;;;;;;5051253;28;20096;-69
2022/12/04 08:52:00;;;;;;;31.60;23.30;;;;;;;;;;5050379;28;20144;-69
2022/12/04 08:54:25;;;;;;;36.58;22.90;;;;;;;;;;5043231;28;20036;-69
2022/12/04 08:56:50;;;;;;;37.50;23.58;;;;;;;;;;5050389;28;20107;-69
2022/12/04 08:59:16;;;;;;;36.88;23.98;;;;;;;;;;5051176;28;20017;-69
2022/12/04 09:01:41;;;;;;;39.92;24.58;;;;;;;;;;5032705;28;20021;-69
2022/12/04 09:04:06;;;;;;;37.33;22.30;;;;;;;;;;5037352;28;20028;-69
2022/12/04 09:06:31;;;;;;;35.85;21.67;;;;;;;;;;5035291;28;20468;-69
2022/12/04 09:08:57;;;;;;;32.15;22.10;;;;;;;;;;5043231;28;20395;-69
2022/12/04 09:11:24;;;;;;;38.47;23.67;;;;;;;;;;5039143;28;20017;-69
2022/12/04 09:13:49;;;;;;;33.22;20.08;;;;;;;;;;5045351;28;20490;-69
2022/12/04 09:16:15;;;;;;;33.45;22.25;;;;;;;;;;5048047;28;20020;-69
2022/12/04 09:18:41;;;;;;;30.35;21.02;;;;;;;;;;5039705;28;20036;-69
2022/12/04 09:21:08;;;;;;;34.55;21.05;;;;;;;;;;5064604;28;20013;-69
2022/12/04 09:23:34;;;;;;;28.85;20.67;;;;;;;;;;5055221;28;20020;-69
2022/12/04 09:25:59;;;;;;;32.42;20.30;;;;;;;;;;5049576;28;20071;-69
2022/12/04 09:28:24;;;;;;;30.55;19.15;;;;;;;;;;5045620;28;20028;-69
2022/12/04 09:31:00;;;;;;;35.63;19.50;;;;;;;;;;5049043;28;20023;-70
2022/12/04 09:33:25;;;;;;;30.35;17.90;;;;;;;;;;5045936;28;20043;-69
2022/12/04 09:35:51;;;;;;;29.98;19.00;;;;;;;;;;5038923;28;20456;-69
2022/12/04 09:38:16;;;;;;;27.80;18.40;;;;;;;;;;5054897;28;20029;-69
2022/12/04 09:41:04;;;;;;;29.23;19.52;;;;;;;;;;5038290;28;20044;-70
2022/12/04 09:43:45;;;;;;;24.98;17.15;;;;;;;;;;5036164;28;20021;-69
2022/12/04 09:46:31;;;;;;;28.15;18.05;;;;;;;;;;5035181;28;20021;-69
2022/12/04 09:48:57;;;;;;;28.65;17.88;;;;;;;;;;5036954;28;20080;-69
2022/12/04 09:51:23;;;;;;;24.33;16.58;;;;;;;;;;5035812;28;20044;-69
2022/12/04 09:53:49;;;;;;;23.48;16.05;;;;;;;;;;5062764;28;20012;-69
2022/12/04 09:56:18;;;;;;;24.80;16.97;;;;;;;;;;5036265;28;20056;-69
2022/12/04 09:58:43;;;;;;;23.42;16.92;;;;;;;;;;5046382;28;20311;-69
2022/12/04 10:01:21;;;;;;;26.77;17.30;;;;;;;;;;5025862;28;20500;-69
2022/12/04 10:03:47;;;;;;;22.70;16.75;;;;;;;;;;5035185;28;20774;-69
2022/12/04 10:06:18;;;;;;;31.75;24.27;;;;;;;;;;5035725;28;20025;-69
2022/12/04 10:08:44;;;;;;;26.60;16.65;;;;;;;;;;5044442;28;20368;-69
2022/12/04 10:11:17;;;;;;;21.85;15.50;;;;;;;;;;5034937;28;20498;-69
2022/12/04 10:13:51;;;;;;;25.80;16.05;;;;;;;;;;5034140;28;20013;-69
2022/12/04 10:16:35;;;;;;;22.35;14.93;;;;;;;;;;5039978;28;20021;-68
2022/12/04 10:19:00;;;;;;;23.25;15.30;;;;;;;;;;5041653;28;20079;-69
2022/12/04 10:21:44;;;;;;;22.17;14.93;;;;;;;;;;5040224;28;20021;-68
2022/12/04 10:24:09;;;;;;;21.45;14.65;;;;;;;;;;5034130;28;20472;-69
2022/12/04 10:26:38;;;;;;;23.37;14.77;;;;;;;;;;5034047;28;20061;-70
2022/12/04 10:29:06;;;;;;;18.63;13.90;;;;;;;;;;5038447;28;20295;-69
2022/12/04 10:31:32;;;;;;;21.02;14.10;;;;;;;;;;5037130;28;20021;-69
2022/12/04 10:34:01;;;;;;;20.92;14.43;;;;;;;;;;5051571;28;20040;-69
2022/12/04 10:36:29;;;;;;;19.92;15.23;;;;;;;;;;5036691;28;20010;-69
2022/12/04 10:38:56;;;;;;;20.83;14.07;;;;;;;;;;5036649;28;20072;-69
2022/12/04 10:41:27;;;;;;;19.83;14.20;;;;;;;;;;5047394;28;20010;-69
2022/12/04 10:43:52;;;;;;;24.60;14.73;;;;;;;;;;5038479;28;20021;-70
2022/12/04 10:46:18;;;;;;;21.83;14.23;;;;;;;;;;5045228;28;20040;-70
2022/12/04 10:48:45;;;;;;;20.20;13.97;;;;;;;;;;5043325;28;20487;-70
2022/12/04 10:51:14;;;;;;;20.05;15.40;;;;;;;;;;5047767;28;20350;-76
2022/12/04 10:53:40;;;;;;;22.90;15.05;;;;;;;;;;5052908;28;20016;-74
2022/12/04 10:56:08;;;;;;;26.00;15.30;;;;;;;;;;5059269;28;20028;-76
2022/12/04 10:58:34;;;;;;;19.20;14.43;;;;;;;;;;5035311;28;20013;-68
2022/12/04 11:01:04;;;;;;;24.05;15.82;;;;;;;;;;5026158;28;20380;-67
2022/12/04 11:03:29;;;;;;;24.85;15.35;;;;;;;;;;5034380;28;20028;-69
2022/12/04 11:05:57;;;;;;;24.25;16.98;;;;;;;;;;5035031;28;20025;-69
2022/12/04 11:08:23;;;;;;;19.17;15.00;;;;;;;;;;5034432;28;20108;-72
2022/12/04 11:11:02;;;;;;;23.52;16.63;;;;;;;;;;5034327;28;20096;-78
2022/12/04 11:13:27;;;;;;;20.15;15.32;;;;;;;;;;5058429;28;20024;-70
2022/12/04 11:15:53;;;;;;;22.80;15.30;;;;;;;;;;5041540;28;20025;-77
2022/12/04 11:18:20;;;;;;;23.02;15.85;;;;;;;;;;5059639;28;20114;-70
2022/12/04 11:20:59;;;;;;;22.15;15.93;;;;;;;;;;5060586;28;20035;-76
2022/12/04 11:23:25;;;;;;;21.60;16.73;;;;;;;;;;5047329;28;20444;-69
2022/12/04 11:25:52;;;;;;;22.98;16.13;;;;;;;;;;5057437;28;20051;-70
2022/12/04 11:28:20;;;;;;;22.15;15.48;;;;;;;;;;5050142;28;20125;-67
2022/12/04 11:30:50;;;;;;;21.90;16.63;;;;;;;;;;5035000;28;20025;-67
2022/12/04 11:33:17;;;;;;;24.08;15.35;;;;;;;;;;5037009;28;20506;-70
2022/12/04 11:35:49;;;;;;;22.27;16.98;;;;;;;;;;5037556;28;20074;-70
2022/12/04 11:38:16;;;;;;;26.00;15.63;;;;;;;;;;5042902;28;20017;-70
2022/12/04 11:40:51;;;;;;;25.00;17.58;;;;;;;;;;5053933;28;20153;-74
2022/12/04 11:43:17;;;;;;;22.45;18.15;;;;;;;;;;5061620;28;20074;-69
2022/12/04 11:45:56;;;;;;;32.05;23.25;;;;;;;;;;5052838;28;20013;-74
2022/12/04 11:48:22;;;;;;;23.60;16.17;;;;;;;;;;5039490;28;20430;-72
2022/12/04 11:51:05;;;;;;;27.17;20.55;;;;;;;;;;5045310;28;20035;-71
2022/12/04 11:53:43;;;;;;;24.50;18.03;;;;;;;;;;5050371;28;20005;-74
2022/12/04 11:56:32;;;;;;;24.98;18.50;;;;;;;;;;5050932;28;20278;-69
2022/12/04 11:59:15;;;;;;;25.23;18.17;;;;;;;;;;5033444;28;20033;-69
2022/12/04 12:01:43;;;;;;;23.38;16.98;;;;;;;;;;5034942;28;20480;-69
2022/12/04 12:04:33;;;;;;;23.67;17.67;;;;;;;;;;5035958;28;20052;-71
2022/12/04 12:06:58;;;;;;;23.83;16.27;;;;;;;;;;5043095;28;20028;-76
2022/12/04 12:09:33;;;;;;;20.47;15.17;;;;;;;;;;5048889;28;20029;-70
2022/12/04 12:12:06;;;;;;;24.38;16.15;;;;;;;;;;5033855;28;20271;-68
2022/12/04 12:14:50;;;;;;;23.73;16.50;;;;;;;;;;5050215;28;20025;-68
2022/12/04 12:17:22;;;;;;;24.75;15.93;;;;;;;;;;5049281;28;20024;-68
2022/12/04 12:19:54;;;;;;;24.55;17.58;;;;;;;;;;5050875;28;20025;-70
2022/12/04 12:22:38;;;;;;;25.25;17.45;;;;;;;;;;5052357;28;20129;-69
2022/12/04 12:25:06;;;;;;;23.85;17.20;;;;;;;;;;5047973;28;20099;-69
2022/12/04 12:27:54;;;;;;;24.50;16.98;;;;;;;;;;5044874;28;20104;-68
2022/12/04 12:30:21;;;;;;;25.90;17.10;;;;;;;;;;5041722;28;20040;-69
2022/12/04 12:32:51;;;;;;;23.05;17.75;;;;;;;;;;5053638;28;20044;-69
2022/12/04 12:35:19;;;;;;;23.70;17.77;;;;;;;;;;5054503;28;20021;-69
2022/12/04 12:37:51;;;;;;;26.85;17.27;;;;;;;;;;5054547;28;20021;-69
2022/12/04 12:40:19;;;;;;;23.15;17.42;;;;;;;;;;5054916;28;20021;-69
2022/12/04 12:43:04;;;;;;;23.92;16.35;;;;;;;;;;5042992;28;20074;-69
2022/12/04 12:45:29;;;;;;;;;;;;;;;;;;5056524;28;20056;-69
2022/12/04 12:47:58;;;;;;;21.45;17.48;;;;;;;;;;5043445;28;20237;-69
2022/12/04 12:50:26;;;;;;;23.50;19.27;;;;;;;;;;5058141;28;20016;-69
2022/12/04 12:52:57;;;;;;;24.40;17.63;;;;;;;;;;5063059;28;20504;-72
2022/12/04 12:55:41;;;;;;;23.13;17.08;;;;;;;;;;5040155;28;20096;-75
2022/12/04 12:58:16;;;;;;;22.55;16.48;;;;;;;;;;5049731;28;20017;-74
2022/12/04 13:00:48;;;;;;;28.38;18.88;;;;;;;;;;5043545;28;20021;-74
2022/12/04 13:03:25;;;;;;;26.33;19.52;;;;;;;;;;5060712;28;20360;-71
2022/12/04 13:05:54;;;;;;;26.77;19.80;;;;;;;;;;5048468;28;20025;-71
2022/12/04 13:08:24;;;;;;;26.02;18.23;;;;;;;;;;5049532;28;20082;-71
2022/12/04 13:11:00;;;;;;;22.98;17.25;;;;;;;;;;5053059;28;20029;-72
2022/12/04 13:13:26;;;;;;;25.15;18.45;;;;;;;;;;5064928;28;20466;-72
2022/12/04 13:15:58;;;;;;;27.63;19.25;;;;;;;;;;5060156;28;20048;-75
2022/12/04 13:18:29;;;;;;;25.73;18.52;;;;;;;;;;5048176;28;20071;-78
2022/12/04 13:20:56;;;;;;;26.42;18.60;;;;;;;;;;5053175;28;20078;-76
2022/12/04 13:23:28;;;;;;;24.30;18.10;;;;;;;;;;5054100;28;20087;-69
2022/12/04 13:26:19;;;;;;;23.52;18.15;;;;;;;;;;5044120;28;20104;-71
2022/12/04 13:28:53;;;;;;;22.20;17.42;;;;;;;;;;5056092;28;20063;-73
2022/12/04 13:31:19;;;;;;;25.60;17.58;;;;;;;;;;5045027;28;20025;-75
2022/12/04 13:33:47;;;;;;;24.80;17.73;;;;;;;;;;5065175;28;20086;-73
2022/12/04 13:36:13;;;;;;;31.40;18.60;;;;;;;;;;5056692;28;20478;-72
2022/12/04 13:38:50;;;;;;;23.30;17.85;;;;;;;;;;5052439;28;20080;-71
2022/12/04 13:41:17;;;;;;;23.38;18.27;;;;;;;;;;5049238;28;20028;-75
2022/12/04 13:43:42;;;;;;;22.60;16.98;;;;;;;;;;5041840;28;20502;-77
2022/12/04 13:46:28;;;;;;;26.23;15.73;;;;;;;;;;5056884;28;20017;-75
2022/12/04 13:48:54;;;;;;;22.90;17.17;;;;;;;;;;5043105;28;20037;-77
2022/12/04 13:51:19;;;;;;;23.63;16.83;;;;;;;;;;5040503;28;20067;-74
2022/12/04 13:53:44;;;;;;;24.88;15.82;;;;;;;;;;5055744;28;20389;-74
2022/12/04 13:56:26;;;;;;;24.58;17.80;;;;;;;;;;5051470;28;20356;-75
2022/12/04 13:59:01;;;;;;;21.63;17.20;;;;;;;;;;5047869;28;20017;-68
2022/12/04 14:01:29;;;;;;;21.25;16.27;;;;;;;;;;5050379;28;20108;-69
2022/12/04 14:03:56;;;;;;;25.88;17.33;;;;;;;;;;5053995;28;20518;-69
2022/12/04 14:06:33;;;;;;;24.88;18.52;;;;;;;;;;5036542;28;20025;-70
2022/12/04 14:09:01;;;;;;;28.15;19.75;;;;;;;;;;5047482;28;20025;-69
2022/12/04 14:11:28;;;;;;;26.50;19.08;;;;;;;;;;5052555;28;20016;-68
2022/12/04 14:13:54;;;;;;;24.90;18.25;;;;;;;;;;5063462;28;20108;-69
2022/12/04 14:16:31;;;;;;;31.70;17.90;;;;;;;;;;5047629;28;20024;-68
2022/12/04 14:18:58;;;;;;;24.27;17.98;;;;;;;;;;5053227;28;20067;-69
2022/12/04 14:21:23;;;;;;;24.13;17.88;;;;;;;;;;5057172;28;20091;-69
2022/12/04 14:23:50;;;;;;;31.35;22.38;;;;;;;;;;5053343;28;20021;-69
2022/12/04 14:26:23;;;;;;;24.02;19.42;;;;;;;;;;5058353;28;20041;-69
2022/12/04 14:28:49;;;;;;;24.83;18.80;;;;;;;;;;5050828;28;20028;-70
2022/12/04 14:31:19;;;;;;;23.70;17.70;;;;;;;;;;5050399;28;20017;-70
2022/12/04 14:33:51;;;;;;;25.58;18.27;;;;;;;;;;5052305;28;20082;-72
2022/12/04 14:36:24;;;;;;;28.38;17.98;;;;;;;;;;5056767;28;20029;-74
2022/12/04 14:38:52;;;;;;;22.95;17.90;;;;;;;;;;5053751;28;20389;-73